createdAt,value
2022-11-06T00:01:08.753Z,101022.15
2022-11-06T00:03:38.068Z,101018.30
2022-11-06T00:06:34.190Z,101018.95
2022-11-06T00:09:02.845Z,101022.17
2022-11-06T00:11:31.641Z,101019.41
2022-11-06T00:14:01.731Z,101016.42
2022-11-06T00:16:30.656Z,101017.92
2022-11-06T00:19:02.384Z,101015.92
2022-11-06T00:21:32.723Z,101016.86
2022-11-06T00:24:02.878Z,101017.10
2022-11-06T00:26:33.055Z,101016.80
2022-11-06T00:29:02.792Z,101023.75
2022-11-06T00:31:36.427Z,101029.70
2022-11-06T00:34:07.960Z,101034.06
2022-11-06T00:36:36.982Z,101033.95
2022-11-06T00:39:06.047Z,101028.27
2022-11-06T00:41:34.968Z,101029.86
2022-11-06T00:44:04.510Z,101029.23
2022-11-06T00:46:33.404Z,101024.27
2022-11-06T00:49:02.080Z,101020.33
2022-11-06T00:51:45.476Z,101014.31
2022-11-06T00:54:15.585Z,101013.95
2022-11-06T00:56:44.093Z,101012.79
2022-11-06T00:59:15.176Z,101010.27
2022-11-06T01:01:46.037Z,101009.74
2022-11-06T01:04:22.915Z,101015.09
2022-11-06T01:06:54.189Z,101017.70
2022-11-06T01:09:27.098Z,101019.91
2022-11-06T01:12:15.058Z,101022.70
2022-11-06T01:14:45.158Z,101022.51
2022-11-06T01:17:14.241Z,101027.52
2022-11-06T01:19:43.019Z,101025.98
2022-11-06T01:22:11.513Z,101031.39
2022-11-06T01:24:40.853Z,101030.48
2022-11-06T01:29:58.369Z,101037.30
2022-11-06T01:32:27.545Z,101038.05
2022-11-06T01:34:55.726Z,101041.79
2022-11-06T01:37:24.267Z,101044.65
2022-11-06T01:39:53.302Z,101056.66
2022-11-06T01:42:23.009Z,101065.39
2022-11-06T01:45:29.502Z,101072.10
2022-11-06T01:47:58.179Z,101079.05
2022-11-06T01:50:27.943Z,101083.42
2022-11-06T01:52:56.923Z,101088.67
2022-11-06T01:55:31.427Z,101089.48
2022-11-06T01:58:03.513Z,101086.85
2022-11-06T02:00:33.442Z,101088.23
2022-11-06T02:03:02.798Z,101087.36
2022-11-06T02:05:31.962Z,101080.73
2022-11-06T02:08:02.451Z,101077.04
2022-11-06T02:10:31.630Z,101084.27
2022-11-06T02:13:40.459Z,101089.33
2022-11-06T02:16:41.794Z,101088.00
2022-11-06T02:19:47.799Z,101085.23
2022-11-06T02:22:56.467Z,101080.70
2022-11-06T02:25:36.960Z,101080.02
2022-11-06T02:28:15.246Z,101080.73
2022-11-06T02:30:47.955Z,101076.43
2022-11-06T02:33:35.574Z,101072.48
2022-11-06T02:36:11.481Z,101069.52
2022-11-06T02:38:47.322Z,101066.23
2022-11-06T02:41:23.625Z,101059.31
2022-11-06T02:43:57.991Z,101061.84
2022-11-06T02:46:39.948Z,101064.75
2022-11-06T02:49:20.955Z,101066.64
2022-11-06T02:51:56.350Z,101064.89
2022-11-06T02:54:28.309Z,101067.95
2022-11-06T02:57:01.651Z,101068.80
2022-11-06T02:59:45.480Z,101065.83
2022-11-06T03:02:22.582Z,101060.98
2022-11-06T03:05:18.311Z,101060.98
2022-11-06T03:07:46.795Z,101068.05
2022-11-06T03:10:15.797Z,101071.12
2022-11-06T03:12:52.400Z,101066.46
2022-11-06T03:15:39.951Z,101060.75
2022-11-06T03:18:20.786Z,101060.94
2022-11-06T03:21:15.876Z,101057.87
2022-11-06T03:23:54.631Z,101055.27
2022-11-06T03:26:34.045Z,101053.91
2022-11-06T03:29:13.701Z,101052.41
2022-11-06T03:31:52.417Z,101047.61
2022-11-06T03:34:38.963Z,101042.48
2022-11-06T03:37:15.189Z,101042.50
2022-11-06T03:39:48.074Z,101042.32
2022-11-06T03:42:23.190Z,101042.46
2022-11-06T03:44:57.250Z,101041.37
2022-11-06T03:47:38.391Z,101037.20
2022-11-06T03:50:23.457Z,101040.60
2022-11-06T03:52:57.512Z,101039.45
2022-11-06T03:55:39.597Z,101047.49
2022-11-06T03:58:21.539Z,101047.76
2022-11-06T04:00:52.765Z,101043.52
2022-11-06T04:03:39.151Z,101036.00
2022-11-06T04:06:31.075Z,101039.36
2022-11-06T04:09:23.234Z,101035.63
2022-11-06T04:12:11.286Z,101031.59
2022-11-06T04:14:43.454Z,101028.77
2022-11-06T04:17:15.475Z,101021.54
2022-11-06T04:19:50.958Z,101016.84
2022-11-06T04:22:38.087Z,101011.15
2022-11-06T04:25:37.494Z,101008.55
2022-11-06T04:28:52.449Z,101006.66
2022-11-06T04:31:27.126Z,101012.30
2022-11-06T04:34:07.247Z,101007.25
2022-11-06T04:37:23.210Z,101003.09
2022-11-06T04:40:10.548Z,101002.40
2022-11-06T04:42:55.638Z,101003.58
2022-11-06T04:45:42.734Z,101001.89
2022-11-06T04:48:12.542Z,100993.96
2022-11-06T04:50:47.263Z,100989.65
2022-11-06T04:53:18.049Z,100996.42
2022-11-06T04:55:57.765Z,100995.41
2022-11-06T04:58:26.470Z,100989.05
2022-11-06T05:00:55.273Z,100986.63
2022-11-06T05:03:24.047Z,100985.27
2022-11-06T05:05:52.744Z,100985.09
2022-11-06T05:08:22.967Z,100986.48
2022-11-06T05:10:51.570Z,100988.20
2022-11-06T05:13:20.378Z,100989.91
2022-11-06T05:15:48.933Z,100994.74
2022-11-06T05:18:17.736Z,100990.45
2022-11-06T05:20:46.939Z,100989.77
2022-11-06T05:23:16.626Z,100991.84
2022-11-06T05:25:46.081Z,100994.81
2022-11-06T05:28:15.035Z,100992.64
2022-11-06T05:30:43.938Z,100989.38
2022-11-06T05:33:12.691Z,100983.00
2022-11-06T05:35:41.507Z,100977.67
2022-11-06T05:38:10.341Z,100979.05
2022-11-06T05:40:39.392Z,100977.84
2022-11-06T05:43:08.572Z,100974.94
2022-11-06T05:45:37.576Z,100965.14
2022-11-06T05:48:06.682Z,100962.55
2022-11-06T05:50:35.243Z,100959.83
2022-11-06T05:53:03.747Z,100959.83
2022-11-06T05:55:32.387Z,100958.08
2022-11-06T05:58:01.786Z,100954.83
2022-11-06T06:00:30.764Z,100951.04
2022-11-06T06:02:59.468Z,100944.88
2022-11-06T06:05:28.257Z,100940.08
2022-11-06T06:07:57.220Z,100929.42
2022-11-06T06:10:26.467Z,100920.67
2022-11-06T06:12:54.954Z,100918.80
2022-11-06T06:15:23.791Z,100918.48
2022-11-06T06:17:52.700Z,100915.07
2022-11-06T06:20:21.827Z,100914.93
2022-11-06T06:22:58.018Z,100908.40
2022-11-06T06:25:29.261Z,100904.27
2022-11-06T06:27:59.345Z,100894.30
2022-11-06T06:30:27.998Z,100887.24
2022-11-06T06:32:56.972Z,100883.85
2022-11-06T06:35:26.085Z,100885.30
2022-11-06T06:37:55.703Z,100880.16
2022-11-06T06:40:24.768Z,100876.91
2022-11-06T06:42:53.414Z,100869.86
2022-11-06T06:45:22.136Z,100868.34
2022-11-06T06:47:51.098Z,100861.48
2022-11-06T06:50:22.364Z,100859.59
2022-11-06T06:52:50.951Z,100848.91
2022-11-06T06:55:19.569Z,100840.11
2022-11-06T06:57:47.895Z,100836.34
2022-11-06T07:00:16.851Z,100828.21
2022-11-06T07:02:45.331Z,100825.30
2022-11-06T07:05:13.834Z,100819.48
2022-11-06T07:07:42.383Z,100812.94
2022-11-06T07:10:11.146Z,100803.80
2022-11-06T07:12:39.774Z,100797.80
2022-11-06T07:15:09.086Z,100790.59
2022-11-06T07:17:38.055Z,100788.35
2022-11-06T07:20:07.977Z,100781.09
2022-11-06T07:22:37.755Z,100784.02
2022-11-06T07:25:07.281Z,100784.20
2022-11-06T07:27:36.098Z,100784.23
2022-11-06T07:30:05.024Z,100781.69
2022-11-06T07:32:34.107Z,100777.91
2022-11-06T07:35:02.953Z,100769.98
2022-11-06T07:37:32.273Z,100766.36
2022-11-06T07:40:00.757Z,100762.91
2022-11-06T07:42:29.780Z,100761.67
2022-11-06T07:44:58.201Z,100752.70
2022-11-06T07:47:28.668Z,100744.90
2022-11-06T07:49:57.677Z,100737.31
2022-11-06T07:52:26.349Z,100724.38
2022-11-06T07:54:55.036Z,100719.36
2022-11-06T07:57:23.871Z,100716.13
2022-11-06T07:59:52.241Z,100715.61
2022-11-06T08:02:22.038Z,100713.21
2022-11-06T08:04:51.102Z,100702.15
2022-11-06T08:07:19.775Z,100693.64
2022-11-06T08:09:48.476Z,100683.77
2022-11-06T08:12:16.904Z,100677.19
2022-11-06T08:14:45.833Z,100672.29
2022-11-06T08:17:14.470Z,100667.23
2022-11-06T08:19:43.785Z,100658.53
2022-11-06T08:22:12.563Z,100649.84
2022-11-06T08:24:41.237Z,100642.15
2022-11-06T08:27:09.681Z,100640.34
2022-11-06T08:29:41.368Z,100631.77
2022-11-06T08:32:10.686Z,100628.91
2022-11-06T08:34:39.361Z,100627.79
2022-11-06T08:37:07.838Z,100623.56
2022-11-06T08:39:36.485Z,100621.61
2022-11-06T08:42:06.654Z,100623.09
2022-11-06T08:44:35.551Z,100619.23
2022-11-06T08:47:04.364Z,100608.61
2022-11-06T08:49:33.020Z,100592.30
2022-11-06T08:52:01.565Z,100589.64
2022-11-06T08:54:30.146Z,100581.80
2022-11-06T08:56:59.507Z,100574.15
2022-11-06T08:59:28.084Z,100569.06
2022-11-06T09:01:58.810Z,100562.96
2022-11-06T09:04:27.702Z,100559.77
2022-11-06T09:06:59.181Z,100555.92
2022-11-06T09:09:33.158Z,100549.84
2022-11-06T09:12:03.548Z,100543.20
2022-11-06T09:14:32.550Z,100536.23
2022-11-06T09:17:01.541Z,100531.02
2022-11-06T09:19:30.331Z,100526.83
2022-11-06T09:21:58.983Z,100522.44
2022-11-06T09:24:43.575Z,100517.13
2022-11-06T09:27:16.729Z,100509.47
2022-11-06T09:29:45.531Z,100503.71
2022-11-06T09:32:14.260Z,100500.55
2022-11-06T09:34:43.300Z,100485.85
2022-11-06T09:37:12.076Z,100475.58
2022-11-06T09:39:40.570Z,100461.56
2022-11-06T09:42:24.213Z,100456.02
2022-11-06T09:44:59.594Z,100447.54
2022-11-06T09:47:33.508Z,100439.38
2022-11-06T09:50:05.219Z,100434.02
2022-11-06T09:52:45.801Z,100429.56
2022-11-06T09:55:23.482Z,100415.77
2022-11-06T09:58:34.796Z,100404.52
2022-11-06T10:01:19.565Z,100393.50
2022-11-06T10:03:58.590Z,100377.83
2022-11-06T10:06:29.236Z,100365.41
2022-11-06T10:09:03.175Z,100348.83
2022-11-06T10:11:41.559Z,100343.81
2022-11-06T10:15:01.022Z,100332.42
2022-11-06T10:17:49.701Z,100327.02
2022-11-06T10:20:30.266Z,100328.14
2022-11-06T10:23:20.171Z,100326.19
2022-11-06T10:26:13.697Z,100316.45
2022-11-06T10:29:03.472Z,100312.23
2022-11-06T10:31:41.613Z,100309.65
2022-11-06T10:34:19.437Z,100308.05
2022-11-06T10:36:54.226Z,100297.91
2022-11-06T10:39:31.140Z,100283.12
2022-11-06T10:42:19.349Z,100274.38
2022-11-06T10:44:50.641Z,100264.59
2022-11-06T10:47:24.917Z,100253.61
2022-11-06T10:50:03.657Z,100248.48
2022-11-06T10:52:40.432Z,100241.98
2022-11-06T10:55:34.399Z,100237.55
2022-11-06T10:58:18.432Z,100218.63
2022-11-06T11:00:47.531Z,100202.47
2022-11-06T11:03:42.285Z,100195.23
2022-11-06T11:06:11.130Z,100184.19
2022-11-06T11:08:43.487Z,100180.67
2022-11-06T11:11:23.726Z,100170.80
2022-11-06T11:14:03.103Z,100172.99
2022-11-06T11:16:38.257Z,100173.83
2022-11-06T11:19:25.093Z,100175.20
2022-11-06T11:21:59.197Z,100165.89
2022-11-06T11:24:28.755Z,100159.48
2022-11-06T11:27:03.113Z,100160.33
2022-11-06T11:29:45.921Z,100150.89
2022-11-06T11:32:18.006Z,100147.13
2022-11-06T11:34:58.359Z,100132.52
2022-11-06T11:37:33.370Z,100127.86
2022-11-06T11:40:24.712Z,100112.34
2022-11-06T11:42:53.856Z,100102.02
2022-11-06T11:45:23.285Z,100087.90
2022-11-06T11:47:53.565Z,100080.83
2022-11-06T11:50:30.722Z,100071.71
2022-11-06T11:53:19.800Z,100062.25
2022-11-06T11:55:51.685Z,100064.48
2022-11-06T11:58:29.946Z,100056.59
2022-11-06T12:01:04.898Z,100055.20
2022-11-06T12:03:43.101Z,100050.70
2022-11-06T12:06:16.503Z,100051.19
2022-11-06T12:08:55.134Z,100050.33
2022-11-06T12:11:29.959Z,100041.73
2022-11-06T12:14:22.996Z,100046.07
2022-11-06T12:16:55.059Z,100039.70
2022-11-06T12:19:28.765Z,100035.41
2022-11-06T12:22:02.233Z,100036.79
2022-11-06T12:24:39.051Z,100023.38
2022-11-06T12:27:17.231Z,100022.88
2022-11-06T12:29:55.128Z,100016.35
2022-11-06T12:32:36.368Z,100011.34
2022-11-06T12:35:27.658Z,100009.08
2022-11-06T12:37:59.567Z,100006.83
2022-11-06T12:40:33.465Z,100007.03
2022-11-06T12:43:11.670Z,100009.80
2022-11-06T12:45:49.894Z,100005.35
2022-11-06T12:48:51.345Z,100007.09
2022-11-06T12:51:51.771Z,100002.98
2022-11-06T12:54:27.834Z,99994.54
2022-11-06T12:57:12.177Z,99987.17
2022-11-06T12:59:52.569Z,99979.78
2022-11-06T13:02:45.306Z,99967.75
2022-11-06T13:05:22.222Z,99967.58
2022-11-06T13:08:18.834Z,99967.06
2022-11-06T13:10:53.344Z,99962.09
2022-11-06T13:13:36.467Z,99960.32
2022-11-06T13:16:09.913Z,99958.25
2022-11-06T13:19:14.046Z,99948.95
2022-11-06T13:22:21.026Z,99946.36
2022-11-06T13:24:58.815Z,99936.70
2022-11-06T13:27:48.135Z,99927.61
2022-11-06T13:30:20.930Z,99926.58
2022-11-06T13:33:04.025Z,99919.36
2022-11-06T13:35:34.735Z,99907.67
2022-11-06T13:38:07.455Z,99906.46
2022-11-06T13:40:41.908Z,99904.40
2022-11-06T13:43:46.140Z,99898.38
2022-11-06T13:46:25.495Z,99906.15
2022-11-06T13:49:18.718Z,99899.45
2022-11-06T13:52:02.490Z,99896.02
2022-11-06T13:54:52.380Z,99894.45
2022-11-06T13:57:42.325Z,99892.39
2022-11-06T14:00:38.001Z,99891.31
2022-11-06T14:03:27.724Z,99888.67
2022-11-06T14:06:02.274Z,99893.97
2022-11-06T14:08:42.956Z,99895.51
2022-11-06T14:11:21.941Z,99893.59
2022-11-06T14:14:05.879Z,99896.49
2022-11-06T14:16:39.935Z,99895.30
2022-11-06T14:19:27.747Z,99890.81
2022-11-06T14:22:27.752Z,99884.79
2022-11-06T14:25:01.218Z,99876.17
2022-11-06T14:27:30.880Z,99866.18
2022-11-06T14:30:02.066Z,99857.39
2022-11-06T14:32:32.992Z,99849.80
2022-11-06T14:35:35.778Z,99844.98
2022-11-06T14:38:23.034Z,99825.16
2022-11-06T14:40:51.296Z,99818.92
2022-11-06T14:43:38.385Z,99811.16
2022-11-06T14:46:22.144Z,99800.17
2022-11-06T14:48:56.179Z,99803.61
2022-11-06T14:51:30.661Z,99799.85
2022-11-06T14:54:03.013Z,99791.96
2022-11-06T14:56:35.078Z,99795.38
2022-11-06T14:59:10.420Z,99793.48
2022-11-06T15:01:39.054Z,99801.77
2022-11-06T15:04:19.872Z,99808.50
2022-11-06T15:06:52.896Z,99815.23
2022-11-06T15:09:29.674Z,99820.23
2022-11-06T15:12:02.837Z,99824.89
2022-11-06T15:14:31.534Z,99831.10
2022-11-06T15:17:06.536Z,99840.07
2022-11-06T15:20:01.943Z,99841.48
2022-11-06T15:22:43.545Z,99839.79
2022-11-06T15:25:18.408Z,99843.64
2022-11-06T15:28:09.731Z,99847.80
2022-11-06T15:31:09.746Z,99849.89
2022-11-06T15:33:59.753Z,99838.01
2022-11-06T15:36:30.992Z,99838.99
2022-11-06T15:38:59.982Z,99842.75
2022-11-06T15:41:29.033Z,99841.86
2022-11-06T15:43:57.990Z,99846.48
2022-11-06T15:46:29.635Z,99849.03
2022-11-06T15:49:21.354Z,99855.37
2022-11-06T15:52:00.833Z,99863.27
2022-11-06T15:54:37.030Z,99862.54
2022-11-06T15:57:14.947Z,99867.66
2022-11-06T15:59:44.301Z,99867.08
2022-11-06T16:02:19.939Z,99871.36
2022-11-06T16:04:49.963Z,99869.23
2022-11-06T16:07:20.897Z,99866.58
2022-11-06T16:09:51.729Z,99867.38
2022-11-06T16:12:21.009Z,99874.01
2022-11-06T16:14:49.774Z,99873.27
2022-11-06T16:17:29.762Z,99866.86
2022-11-06T16:20:01.227Z,99865.29
2022-11-06T16:22:35.499Z,99857.36
2022-11-06T16:25:07.317Z,99853.75
2022-11-06T16:27:42.847Z,99844.45
2022-11-06T16:30:25.265Z,99827.10
2022-11-06T16:32:54.610Z,99809.23
2022-11-06T16:35:37.739Z,99773.84
2022-11-06T16:38:45.774Z,99733.45
2022-11-06T16:41:37.156Z,99662.64
2022-11-06T16:44:39.997Z,99645.28
2022-11-06T16:47:23.642Z,99601.78
2022-11-06T16:49:54.737Z,99571.52
2022-11-06T16:52:35.365Z,99578.57
2022-11-06T16:55:12.529Z,99599.89
2022-11-06T16:57:55.174Z,99627.40
2022-11-06T17:00:27.798Z,99647.36
2022-11-06T17:02:58.407Z,99677.63
2022-11-06T17:05:31.236Z,99694.48
2022-11-06T17:08:39.828Z,99741.29
2022-11-06T17:11:15.388Z,99756.77
2022-11-06T17:13:47.061Z,99764.20
2022-11-06T17:16:22.933Z,99760.11
2022-11-06T17:18:52.065Z,99759.80
2022-11-06T17:21:26.374Z,99759.34
2022-11-06T17:24:03.648Z,99763.32
2022-11-06T17:26:39.182Z,99751.83
2022-11-06T17:29:07.871Z,99741.39
2022-11-06T17:31:36.841Z,99731.13
2022-11-06T17:34:06.195Z,99716.73
2022-11-06T17:36:36.426Z,99731.58
2022-11-06T17:39:06.621Z,99765.34
2022-11-06T17:41:35.538Z,99788.94
2022-11-06T17:44:14.646Z,99792.42
2022-11-06T17:46:48.148Z,99791.73
2022-11-06T17:49:18.668Z,99796.77
2022-11-06T17:51:51.363Z,99799.37
2022-11-06T17:54:21.443Z,99798.54
2022-11-06T17:56:52.179Z,99802.66
2022-11-06T17:59:21.224Z,99791.31
2022-11-06T18:01:51.268Z,99785.46
2022-11-06T18:04:21.514Z,99782.35
2022-11-06T18:06:53.088Z,99777.36
2022-11-06T18:09:23.037Z,99774.64
2022-11-06T18:11:56.427Z,99777.73
2022-11-06T18:14:26.880Z,99762.91
2022-11-06T18:16:55.774Z,99771.52
2022-11-06T18:19:25.582Z,99770.31
2022-11-06T18:21:56.008Z,99770.14
2022-11-06T18:24:25.053Z,99778.75
2022-11-06T18:26:53.824Z,99791.63
2022-11-06T18:29:22.384Z,99800.92
2022-11-06T18:31:51.082Z,99815.73
2022-11-06T18:34:21.803Z,99825.56
2022-11-06T18:36:51.989Z,99830.09
2022-11-06T18:39:20.922Z,99830.79
2022-11-06T18:41:49.863Z,99820.29
2022-11-06T18:44:19.473Z,99821.87
2022-11-06T18:46:48.541Z,99823.42
2022-11-06T18:49:17.694Z,99815.35
2022-11-06T18:51:46.831Z,99803.69
2022-11-06T18:54:16.117Z,99804.06
2022-11-06T18:56:44.946Z,99805.63
2022-11-06T18:59:20.517Z,99809.09
2022-11-06T19:01:49.532Z,99819.79
2022-11-06T19:04:18.342Z,99830.34
2022-11-06T19:06:47.141Z,99832.29
2022-11-06T19:09:15.622Z,99826.47
2022-11-06T19:11:44.359Z,99820.28
2022-11-06T19:14:12.874Z,99815.50
2022-11-06T19:16:41.541Z,99808.48
2022-11-06T19:19:12.028Z,99807.98
2022-11-06T19:21:47.341Z,99809.39
2022-11-06T19:24:16.532Z,99811.30
2022-11-06T19:26:44.946Z,99811.85
2022-11-06T19:29:13.756Z,99807.55
2022-11-06T19:31:42.752Z,99799.67
2022-11-06T19:34:14.898Z,99795.24
2022-11-06T19:36:43.655Z,99782.38
2022-11-06T19:39:12.640Z,99774.48
2022-11-06T19:41:41.362Z,99786.58
2022-11-06T19:44:11.813Z,99811.77
2022-11-06T19:46:40.794Z,99830.23
2022-11-06T19:49:11.087Z,99830.45
2022-11-06T19:51:41.985Z,99824.81
2022-11-06T19:54:12.191Z,99815.89
2022-11-06T19:57:27.831Z,99813.16
2022-11-06T19:59:29.150Z,99811.64
2022-11-06T20:01:58.150Z,99804.42
2022-11-06T20:04:26.834Z,99800.50
2022-11-06T20:06:55.312Z,99791.55
2022-11-06T20:09:24.021Z,99776.92
2022-11-06T20:11:53.521Z,99771.94
2022-11-06T20:14:25.716Z,99770.73
2022-11-06T20:16:54.609Z,99775.93
2022-11-06T20:19:23.280Z,99772.83
2022-11-06T20:21:51.755Z,99764.91
2022-11-06T20:24:20.307Z,99753.91
2022-11-06T20:26:49.001Z,99756.50
2022-11-06T20:29:17.974Z,99758.43
2022-11-06T20:31:46.261Z,99755.21
2022-11-06T20:34:15.014Z,99750.76
2022-11-06T20:36:43.291Z,99753.05
2022-11-06T20:39:11.868Z,99753.28
2022-11-06T20:41:40.702Z,99735.56
2022-11-06T20:44:09.508Z,99725.42
2022-11-06T20:46:37.940Z,99723.56
2022-11-06T20:49:07.383Z,99722.36
2022-11-06T20:51:48.417Z,99722.20
2022-11-06T20:54:24.744Z,99721.70
2022-11-06T20:56:53.771Z,99724.46
2022-11-06T20:59:22.395Z,99721.89
2022-11-06T21:01:51.195Z,99719.10
2022-11-06T21:04:19.890Z,99720.83
2022-11-06T21:06:48.797Z,99722.73
2022-11-06T21:09:17.684Z,99725.48
2022-11-06T21:11:46.476Z,99733.06
2022-11-06T21:14:15.110Z,99737.20
2022-11-06T21:16:44.600Z,99732.73
2022-11-06T21:19:13.115Z,99724.27
2022-11-06T21:21:43.045Z,99727.39
2022-11-06T21:24:12.807Z,99725.34
2022-11-06T21:26:42.248Z,99717.08
2022-11-06T21:29:12.627Z,99719.36
2022-11-06T21:31:48.558Z,99718.16
2022-11-06T21:34:19.178Z,99716.30
2022-11-06T21:36:48.444Z,99710.98
2022-11-06T21:39:20.115Z,99706.84
2022-11-06T21:41:49.122Z,99710.83
2022-11-06T21:44:19.361Z,99713.08
2022-11-06T21:46:48.664Z,99712.39
2022-11-06T21:49:17.268Z,99716.90
2022-11-06T21:51:45.964Z,99722.60
2022-11-06T21:54:33.457Z,99720.17
2022-11-06T21:57:02.111Z,99716.72
2022-11-06T21:59:31.132Z,99709.30
2022-11-06T22:01:59.852Z,99711.38
2022-11-06T22:04:28.826Z,99711.20
2022-11-06T22:06:57.353Z,99713.45
2022-11-06T22:09:27.042Z,99716.55
2022-11-06T22:11:55.719Z,99714.66
2022-11-06T22:14:24.809Z,99711.70
2022-11-06T22:16:53.924Z,99709.64
2022-11-06T22:19:22.293Z,99708.25
2022-11-06T22:21:50.539Z,99709.80
2022-11-06T22:24:19.301Z,99708.79
2022-11-06T22:26:47.946Z,99713.27
2022-11-06T22:29:17.230Z,99713.10
2022-11-06T22:31:45.928Z,99710.34
2022-11-06T22:34:14.985Z,99716.05
2022-11-06T22:36:43.612Z,99726.06
2022-11-06T22:39:13.648Z,99727.27
2022-11-06T22:41:42.684Z,99727.61
2022-11-06T22:44:13.603Z,99724.00
2022-11-06T22:46:42.100Z,99725.90
2022-11-06T22:49:10.656Z,99727.79
2022-11-06T22:51:39.611Z,99724.67
2022-11-06T22:54:08.305Z,99725.18
2022-11-06T22:56:37.434Z,99726.90
2022-11-06T22:59:09.697Z,99722.07
2022-11-06T23:01:42.213Z,99715.51
2022-11-06T23:04:17.288Z,99717.39
2022-11-06T23:06:46.761Z,99720.32
2022-11-06T23:09:15.532Z,99715.15
2022-11-06T23:11:47.351Z,99714.27
2022-11-06T23:14:16.032Z,99715.66
2022-11-06T23:16:59.900Z,99711.01
2022-11-06T23:19:30.513Z,99703.58
2022-11-06T23:22:17.634Z,99700.13
2022-11-06T23:24:45.965Z,99699.63
2022-11-06T23:27:14.209Z,99699.10
2022-11-06T23:29:42.636Z,99689.95
2022-11-06T23:32:11.066Z,99687.89
2022-11-06T23:34:39.464Z,99678.40
2022-11-06T23:37:08.346Z,99675.46
2022-11-06T23:39:45.285Z,99676.14
2022-11-06T23:42:22.493Z,99675.96
2022-11-06T23:45:09.393Z,99678.73
2022-11-06T23:47:37.913Z,99682.17
2022-11-06T23:50:07.536Z,99687.20
2022-11-06T23:52:36.334Z,99688.38
2022-11-06T23:55:05.486Z,99698.73
2022-11-06T23:57:34.010Z,99699.95
